Time;durP1;ratioP1;P1;durP2;ratioP2;P2;SDS_P1;SDS_P2;PMS_P1;PMS_P2;Temp;Humidity;BMP_temperature;BMP_pressure;BME280_temperature;BME280_humidity;BME280_pressure;Samples;Min_cycle;Max_cycle;Signal;HPM_P1;HPM_P2
2022/04/11 00:53:53;;;;;;;1.02;0.82;;;;;;;4.22;80.35;94702.16;5592551;23;20057;-88
2022/04/11 00:56:19;;;;;;;2.45;1.00;;;;;;;4.34;75.52;94697.00;5002957;28;20322;-89
2022/04/11 00:58:46;;;;;;;1.38;0.80;;;;;;;4.24;73.88;94689.75;5002811;28;20461;-88
2022/04/11 01:01:11;;;;;;;2.97;1.30;;;;;;;4.42;73.11;94698.50;5010538;28;20117;-88
2022/04/11 01:03:40;;;;;;;1.25;0.80;;;;;;;4.29;76.05;94700.25;5021183;28;20056;-88
2022/04/11 01:06:07;;;;;;;5.22;1.65;;;;;;;4.10;83.98;94699.50;5025693;28;20575;-88
2022/04/11 01:08:33;;;;;;;2.72;1.20;;;;;;;3.92;84.51;94706.28;5035435;28;20479;-89
2022/04/11 01:10:59;;;;;;;1.20;0.68;;;;;;;3.78;89.29;94705.63;5059528;28;20025;-88
2022/04/11 01:13:24;;;;;;;2.67;1.00;;;;;;;3.72;91.42;94714.25;5042645;28;20095;-87
2022/04/11 01:16:01;;;;;;;2.42;0.65;;;;;;;3.73;83.77;94710.69;5059277;28;20021;-88
2022/04/11 01:18:26;;;;;;;2.03;0.90;;;;;;;3.75;85.08;94711.25;5059733;28;20047;-89
2022/04/11 01:20:52;;;;;;;1.75;0.93;;;;;;;3.78;79.74;94718.59;5059301;28;20108;-89
2022/04/11 01:23:18;;;;;;;1.52;0.90;;;;;;;3.89;76.65;94717.09;5042386;28;20027;-87
2022/04/11 01:25:50;;;;;;;4.38;1.00;;;;;;;4.15;70.40;94714.41;5058697;28;20029;-87
2022/04/11 01:28:15;;;;;;;0.95;0.63;;;;;;;4.45;69.48;94721.44;5042469;28;20448;-88
2022/04/11 01:30:41;;;;;;;4.90;0.88;;;;;;;4.23;76.03;94719.31;5042997;28;20120;-88
2022/04/11 01:33:23;;;;;;;1.20;0.70;;;;;;;4.16;72.85;94718.56;5060210;28;20444;-88
2022/04/11 01:35:49;;;;;;;1.15;0.70;;;;;;;4.60;65.62;94721.03;5060134;28;20021;-88
2022/04/11 01:38:14;;;;;;;1.10;0.60;;;;;;;4.84;64.52;94724.50;5058987;28;20033;-88
2022/04/11 01:40:51;;;;;;;1.42;0.70;;;;;;;5.12;62.61;94736.06;5042746;28;20474;-89
2022/04/11 01:43:16;;;;;;;0.70;0.50;;;;;;;4.63;71.50;94729.19;5058937;28;20027;-88
2022/04/11 01:45:42;;;;;;;1.50;0.70;;;;;;;4.56;73.52;94725.88;5042266;28;20025;-89
2022/04/11 01:48:07;;;;;;;3.55;0.80;;;;;;;4.37;73.38;94722.50;5058789;28;20024;-88
2022/04/11 01:50:33;;;;;;;0.95;0.60;;;;;;;4.05;78.43;94733.88;5058709;28;20020;-87
2022/04/11 01:53:19;;;;;;;2.22;1.00;;;;;;;3.99;81.75;94732.13;5042179;28;20024;-87
2022/04/11 01:55:45;;;;;;;1.90;0.90;;;;;;;3.90;75.36;94736.81;5042155;28;20028;-88
2022/04/11 01:58:11;;;;;;;2.17;1.13;;;;;;;3.78;82.13;94741.13;5042200;28;20429;-88
2022/04/11 02:00:37;;;;;;;1.15;0.70;;;;;;;4.00;71.16;94741.50;5058586;28;20025;-87
2022/04/11 02:03:04;;;;;;;1.27;0.82;;;;;;;4.07;68.31;94737.03;5042130;28;20021;-88
2022/04/11 02:05:30;;;;;;;1.02;0.80;;;;;;;4.18;69.17;94739.91;5041668;28;20025;-88
2022/04/11 02:07:56;;;;;;;4.53;1.00;;;;;;;3.95;80.11;94743.94;5041842;28;20031;-87
2022/04/11 02:10:22;;;;;;;2.28;0.70;;;;;;;3.82;77.78;94739.69;5058417;28;20025;-89
2022/04/11 02:12:48;;;;;;;2.28;0.77;;;;;;;3.73;77.40;94743.56;5058264;28;20032;-88
2022/04/11 02:15:14;;;;;;;1.60;0.80;;;;;;;3.60;88.00;94737.50;5058074;28;20021;-88
2022/04/11 02:17:40;;;;;;;1.33;0.57;;;;;;;3.69;81.14;94748.38;5041756;28;20098;-87
2022/04/11 02:20:06;;;;;;;1.95;1.30;;;;;;;3.72;77.26;94744.59;5041198;28;20060;-88
2022/04/11 02:22:49;;;;;;;1.52;0.80;;;;;;;3.66;79.72;94746.22;5041751;28;20052;-88
2022/04/11 02:25:15;;;;;;;2.30;0.75;;;;;;;3.61;73.71;94738.31;5041707;28;20453;-88
2022/04/11 02:27:41;;;;;;;1.00;0.60;;;;;;;3.74;72.92;94748.56;5057941;28;20342;-89
2022/04/11 02:30:08;;;;;;;1.45;0.80;;;;;;;3.71;73.45;94741.19;5057752;28;20107;-89
2022/04/11 02:32:33;;;;;;;3.33;0.60;;;;;;;3.81;74.56;94744.09;5057943;28;20060;-88
2022/04/11 02:35:01;;;;;;;1.90;0.80;;;;;;;3.80;68.45;94744.28;5041584;28;20048;-88
2022/04/11 02:37:26;;;;;;;0.80;0.65;;;;;;;3.89;72.95;94740.41;5041432;28;20027;-88
2022/04/11 02:39:52;;;;;;;1.45;0.63;;;;;;;3.73;80.48;94744.38;5058952;28;20501;-88
2022/04/11 02:42:24;;;;;;;1.60;0.60;;;;;;;3.65;74.70;94748.00;5057812;28;20029;-88
2022/04/11 02:44:50;;;;;;;1.25;0.65;;;;;;;3.80;70.55;94737.31;5058049;28;20052;-88
2022/04/11 02:47:16;;;;;;;0.82;0.50;;;;;;;3.78;79.09;94741.94;5057637;28;20052;-88
2022/04/11 02:49:42;;;;;;;1.55;0.60;;;;;;;3.65;82.43;94740.25;5057899;28;20024;-87
2022/04/11 02:52:07;;;;;;;2.15;0.80;;;;;;;4.01;73.65;94744.88;5057605;28;20052;-87
2022/04/11 02:54:33;;;;;;;1.25;0.70;;;;;;;3.88;77.13;94745.84;5057431;28;20029;-89
2022/04/11 02:56:58;;;;;;;1.60;0.70;;;;;;;3.84;72.19;94752.44;5030656;28;20031;-88
2022/04/11 02:59:24;;;;;;;4.38;0.80;;;;;;;4.21;67.15;94752.44;5041839;28;20024;-88
2022/04/11 03:01:50;;;;;;;1.27;0.70;;;;;;;4.52;64.51;94748.09;5024823;28;20025;-89
2022/04/11 03:04:19;;;;;;;1.40;0.77;;;;;;;4.65;62.47;94752.31;5041109;28;20021;-91
2022/04/11 03:06:45;;;;;;;1.90;0.73;;;;;;;4.92;60.67;94757.94;5024737;28;20040;-91
2022/04/11 03:09:11;;;;;;;0.80;0.60;;;;;;;5.13;61.05;94758.44;5024057;28;20027;-91
2022/04/11 03:11:36;;;;;;;1.13;0.65;;;;;;;5.24;59.10;94760.25;5040161;28;20338;-91
2022/04/11 03:14:02;;;;;;;2.28;0.60;;;;;;;5.16;58.86;94762.41;5024274;28;20418;-91
2022/04/11 03:16:27;;;;;;;2.10;0.70;;;;;;;5.16;58.66;94752.78;5023873;28;20017;-90
2022/04/11 03:18:53;;;;;;;1.13;0.70;;;;;;;5.11;58.87;94755.25;5023892;28;20025;-90
2022/04/11 03:21:19;;;;;;;1.15;0.82;;;;;;;4.99;59.80;94749.25;5040068;28;20123;-90
2022/04/11 03:23:44;;;;;;;1.40;0.75;;;;;;;4.76;63.27;94754.16;5040175;28;20024;-90
2022/04/11 03:26:10;;;;;;;1.92;0.90;;;;;;;4.48;67.46;94744.34;5023620;28;20029;-89
2022/04/11 03:28:35;;;;;;;2.85;0.75;;;;;;;3.85;75.09;94751.41;5023957;28;20048;-91
2022/04/11 03:31:00;;;;;;;3.33;0.80;;;;;;;3.78;68.58;94754.06;5039430;28;20028;-91
2022/04/11 03:33:26;;;;;;;0.95;0.60;;;;;;;3.65;74.26;94747.22;5023315;28;20025;-91
2022/04/11 03:35:52;;;;;;;3.20;0.93;;;;;;;3.54;79.46;94756.50;5023766;28;20017;-91
2022/04/11 03:38:17;;;;;;;1.55;0.70;;;;;;;3.70;73.18;94746.59;5039900;28;20025;-91
2022/04/11 03:40:43;;;;;;;5.10;1.20;;;;;;;3.49;77.64;94746.78;5040333;28;20024;-91
2022/04/11 03:43:08;;;;;;;0.80;0.65;;;;;;;3.46;73.61;94743.81;5039788;28;20032;-90
2022/04/11 03:45:34;;;;;;;1.17;0.68;;;;;;;3.34;78.86;94748.91;5039645;28;20085;-91
2022/04/11 03:47:59;;;;;;;1.95;0.80;;;;;;;3.35;77.28;94747.91;5023649;28;20481;-90
2022/04/11 03:50:25;;;;;;;2.47;0.95;;;;;;;3.32;78.80;94745.75;5023366;28;20021;-91
2022/04/11 03:52:50;;;;;;;1.95;0.93;;;;;;;3.31;79.69;94738.97;5039690;28;20025;-92
2022/04/11 03:55:16;;;;;;;2.15;0.70;;;;;;;3.25;75.20;94749.16;5023046;28;20044;-90
2022/04/11 03:57:41;;;;;;;2.10;0.80;;;;;;;3.50;76.65;94752.72;5023046;28;20025;-90
2022/04/11 04:00:08;;;;;;;3.22;0.85;;;;;;;3.51;74.96;94752.53;5039353;28;20052;-90
2022/04/11 04:02:33;;;;;;;9.13;0.82;;;;;;;3.44;77.16;94751.78;5038135;28;20035;-91
2022/04/11 04:04:58;;;;;;;2.35;0.85;;;;;;;3.50;71.86;94748.34;5040201;28;20024;-90
2022/04/11 04:07:24;;;;;;;4.05;1.02;;;;;;;3.47;73.09;94755.75;5022921;28;20037;-90
2022/04/11 04:09:50;;;;;;;2.05;0.90;;;;;;;3.56;78.37;94740.72;5023180;28;20033;-90
2022/04/11 04:12:19;;;;;;;2.53;0.90;;;;;;;3.45;81.03;94744.81;5022903;28;20496;-90
2022/04/11 04:14:50;;;;;;;3.63;0.60;;;;;;;3.30;85.33;94748.53;5039334;28;20078;-91
2022/04/11 04:17:15;;;;;;;4.43;0.70;;;;;;;3.17;92.09;94753.81;5039576;28;20025;-90
2022/04/11 04:19:41;;;;;;;1.48;0.95;;;;;;;3.46;81.97;94757.56;5039155;28;20036;-90
2022/04/11 04:22:07;;;;;;;1.45;0.75;;;;;;;3.28;77.31;94765.28;5022825;28;20028;-91
2022/04/11 04:24:34;;;;;;;1.85;0.77;;;;;;;3.31;73.91;94759.69;5039123;28;20046;-90
2022/04/11 04:27:01;;;;;;;1.13;0.70;;;;;;;3.56;74.54;94762.25;5039100;28;20445;-90
2022/04/11 04:29:27;;;;;;;0.73;0.65;;;;;;;3.53;77.20;94767.88;5022832;28;20441;-91
2022/04/11 04:31:53;;;;;;;3.63;0.90;;;;;;;3.49;71.63;94764.09;5039043;28;20490;-93
2022/04/11 04:34:22;;;;;;;1.20;0.60;;;;;;;3.75;68.83;94763.09;5039723;28;20417;-93
2022/04/11 04:36:47;;;;;;;3.83;1.23;;;;;;;3.62;72.93;94752.84;5039275;28;20325;-92
2022/04/11 04:39:13;;;;;;;1.58;0.75;;;;;;;3.47;78.73;94758.34;5022864;28;20029;-92
2022/04/11 04:41:39;;;;;;;2.42;1.00;;;;;;;3.27;84.27;94756.72;5038998;28;20433;-93
2022/04/11 04:44:06;;;;;;;2.47;0.57;;;;;;;3.32;75.66;94756.88;5022490;28;20029;-91
2022/04/11 04:46:32;;;;;;;2.22;0.88;;;;;;;3.25;77.80;94753.56;5039110;28;20025;-92
2022/04/11 04:48:58;;;;;;;3.80;0.80;;;;;;;3.35;71.99;94753.06;5039068;28;20119;-92
2022/04/11 04:51:23;;;;;;;2.00;0.80;;;;;;;3.44;79.74;94749.19;5022700;28;20171;-91
2022/04/11 04:53:49;;;;;;;3.55;0.65;;;;;;;3.24;86.02;94750.16;5039071;28;20047;-92
2022/04/11 04:56:14;;;;;;;1.52;0.80;;;;;;;3.20;83.76;94750.78;5038611;28;20025;-90
2022/04/11 04:58:40;;;;;;;1.55;0.95;;;;;;;3.23;80.51;94755.56;5039206;28;20033;-91
2022/04/11 05:01:06;;;;;;;3.80;1.20;;;;;;;3.23;87.28;94755.56;5023013;28;20116;-92
2022/04/11 05:03:31;;;;;;;3.30;0.80;;;;;;;3.21;84.19;94758.34;5022903;28;20081;-92
2022/04/11 05:05:56;;;;;;;3.83;0.70;;;;;;;3.28;80.26;94755.72;5023194;28;20029;-94
2022/04/11 05:08:22;;;;;;;1.73;0.82;;;;;;;3.42;73.99;94755.63;5022786;28;20078;-93
2022/04/11 05:10:47;;;;;;;5.60;1.20;;;;;;;3.45;73.53;94758.56;5022701;28;20406;-91
2022/04/11 05:13:13;;;;;;;3.42;0.93;;;;;;;3.48;79.42;94760.75;5022629;28;20079;-92
2022/04/11 05:15:42;;;;;;;1.80;0.63;;;;;;;3.52;77.03;94761.88;5022472;28;20032;-92
2022/04/11 05:18:08;;;;;;;2.30;0.77;;;;;;;3.64;78.23;94756.78;5022769;28;20365;-92
2022/04/11 05:20:34;;;;;;;3.83;0.65;;;;;;;3.76;73.17;94758.69;5056392;28;20028;-92
2022/04/11 05:22:59;;;;;;;4.13;0.70;;;;;;;3.91;71.50;94763.53;5038669;28;20442;-92
2022/04/11 05:25:25;;;;;;;2.05;0.70;;;;;;;3.93;72.76;94759.72;5056272;28;20426;-92
2022/04/11 05:27:51;;;;;;;1.65;0.82;;;;;;;4.00;80.32;94766.63;5022710;28;20025;-92
2022/04/11 05:30:17;;;;;;;1.83;0.88;;;;;;;4.06;80.72;94763.16;5038735;28;20032;-93
2022/04/11 05:32:43;;;;;;;1.27;0.80;;;;;;;4.13;80.77;94763.91;5022267;28;20037;-91
2022/04/11 05:35:09;;;;;;;1.00;0.57;;;;;;;4.23;74.69;94766.00;5022612;28;20028;-93
2022/04/11 05:37:35;;;;;;;1.45;0.70;;;;;;;4.40;73.18;94761.00;5022575;28;20124;-92
2022/04/11 05:40:00;;;;;;;3.33;0.85;;;;;;;4.55;86.25;94778.78;5038588;28;20421;-91
2022/04/11 05:42:26;;;;;;;2.30;1.02;;;;;;;4.60;90.59;94788.50;5038397;28;20025;-92
2022/04/11 05:45:08;;;;;;;2.67;0.80;;;;;;;4.71;83.28;94777.41;5022028;28;20032;-90
2022/04/11 05:47:33;;;;;;;2.42;1.00;;;;;;;4.76;76.77;94789.72;5022345;28;20086;-91
2022/04/11 05:49:59;;;;;;;2.38;1.10;;;;;;;4.85;76.42;94790.97;5022070;28;20029;-92
2022/04/11 05:52:24;;;;;;;1.33;0.70;;;;;;;4.95;71.53;94790.47;5022042;28;20087;-93
2022/04/11 05:54:51;;;;;;;0.88;0.80;;;;;;;5.04;66.90;94783.94;5022928;28;20037;-89
2022/04/11 05:57:16;;;;;;;4.13;1.05;;;;;;;5.06;68.18;94779.31;5025750;28;20430;-90
2022/04/11 05:59:42;;;;;;;1.80;0.90;;;;;;;4.95;69.46;94782.69;5041843;28;20024;-89
2022/04/11 06:02:11;;;;;;;2.17;0.88;;;;;;;5.00;68.78;94789.78;5041813;28;20028;-90
2022/04/11 06:04:37;;;;;;;1.20;0.90;;;;;;;5.04;67.67;94785.75;5042079;28;20029;-91
2022/04/11 06:07:04;;;;;;;1.25;0.90;;;;;;;5.20;65.67;94792.91;5025245;28;20029;-90
2022/04/11 06:09:29;;;;;;;4.10;1.27;;;;;;;5.53;63.76;94790.81;5041620;28;20354;-91
2022/04/11 06:11:54;;;;;;;2.90;0.95;;;;;;;5.59;63.79;94794.31;5025259;28;20025;-90
2022/04/11 06:14:20;;;;;;;6.10;0.90;;;;;;;5.70;65.45;94803.94;5041434;28;20036;-91
2022/04/11 06:16:45;;;;;;;1.65;0.80;;;;;;;5.90;66.74;94800.22;5041340;28;20040;-90
2022/04/11 06:19:11;;;;;;;1.48;0.70;;;;;;;6.03;66.32;94802.63;5025122;28;20107;-91
2022/04/11 06:21:36;;;;;;;2.22;0.98;;;;;;;6.21;62.45;94804.28;5025051;28;20430;-91
2022/04/11 06:24:02;;;;;;;3.05;0.90;;;;;;;6.37;66.17;94812.41;5024938;28;20151;-92
2022/04/11 06:26:27;;;;;;;2.67;0.90;;;;;;;6.17;68.89;94810.16;5041391;28;20036;-90
2022/04/11 06:28:53;;;;;;;2.95;0.90;;;;;;;6.54;62.84;94811.72;5025266;28;20036;-90
2022/04/11 06:31:18;;;;;;;2.33;1.00;;;;;;;6.46;61.97;94805.81;5024908;28;20031;-90
2022/04/11 06:33:51;;;;;;;1.95;0.95;;;;;;;6.63;62.76;94815.53;5041129;28;20032;-90
2022/04/11 06:36:16;;;;;;;1.30;0.90;;;;;;;6.74;62.27;94813.91;5024783;28;20028;-92
2022/04/11 06:38:42;;;;;;;2.08;0.85;;;;;;;6.92;63.52;94805.94;5040931;28;20033;-92
2022/04/11 06:41:07;;;;;;;1.33;0.90;;;;;;;6.89;66.26;94816.81;5041185;28;20033;-91
2022/04/11 06:43:33;;;;;;;5.47;0.80;;;;;;;6.96;64.27;94813.28;5040934;28;20056;-90
2022/04/11 06:45:58;;;;;;;1.17;0.70;;;;;;;6.95;64.44;94811.69;5024359;28;20036;-92
2022/04/11 06:48:25;;;;;;;1.10;0.80;;;;;;;6.98;63.27;94821.63;5024518;28;20044;-91
2022/04/11 06:50:51;;;;;;;1.45;0.70;;;;;;;6.83;63.17;94828.16;5040821;28;20029;-90
2022/04/11 06:53:16;;;;;;;2.13;0.90;;;;;;;6.92;64.05;94826.75;5041007;28;20418;-91
2022/04/11 06:55:47;;;;;;;1.60;0.68;;;;;;;7.21;63.36;94818.13;5040619;28;20029;-91
2022/04/11 06:58:14;;;;;;;1.45;0.60;;;;;;;7.29;63.26;94824.78;5024583;28;20040;-91
2022/04/11 07:00:39;;;;;;;1.15;0.70;;;;;;;7.39;65.83;94826.75;5024344;28;20033;-91
2022/04/11 07:03:05;;;;;;;1.92;0.60;;;;;;;7.39;65.26;94824.97;5024234;28;20489;-90
2022/04/11 07:05:30;;;;;;;1.80;0.77;;;;;;;7.52;69.30;94825.69;5040415;28;20037;-91
2022/04/11 07:07:56;;;;;;;1.10;0.80;;;;;;;7.54;71.42;94828.84;5024100;28;20083;-91
2022/04/11 07:10:21;;;;;;;1.60;0.70;;;;;;;7.66;67.29;94841.81;5024408;28;20056;-92
2022/04/11 07:12:46;;;;;;;2.08;0.68;;;;;;;7.67;67.22;94827.72;5024413;28;20333;-90
2022/04/11 07:15:12;;;;;;;3.30;0.90;;;;;;;7.77;62.38;94839.13;5040332;28;20039;-91
2022/04/11 07:17:37;;;;;;;3.25;0.60;;;;;;;8.02;64.34;94837.91;5023792;28;20385;-90
2022/04/11 07:20:03;;;;;;;2.40;0.77;;;;;;;8.11;59.97;94840.13;5040247;28;20082;-90
2022/04/11 07:22:28;;;;;;;1.10;0.60;;;;;;;8.25;59.45;94837.97;5040103;28;20036;-91
2022/04/11 07:24:55;;;;;;;1.13;0.70;;;;;;;8.41;57.54;94842.38;5040401;28;20086;-90
2022/04/11 07:27:20;;;;;;;1.75;0.60;;;;;;;8.47;51.34;94843.25;5039926;28;20032;-92
2022/04/11 07:29:45;;;;;;;3.88;0.95;;;;;;;8.43;57.84;94837.72;5023817;28;20029;-91
2022/04/11 07:32:11;;;;;;;3.08;0.70;;;;;;;8.66;54.34;94835.13;5039948;28;20037;-91
2022/04/11 07:34:36;;;;;;;1.17;0.50;;;;;;;8.69;54.68;94832.84;5039933;28;20427;-91
2022/04/11 07:37:02;;;;;;;1.95;0.60;;;;;;;8.92;55.03;94836.22;5039914;28;20044;-92
2022/04/11 07:39:29;;;;;;;1.08;0.57;;;;;;;8.91;50.90;94834.63;5039845;28;20036;-92
2022/04/11 07:41:55;;;;;;;1.23;0.70;;;;;;;8.95;52.74;94834.94;5040060;28;20043;-89
2022/04/11 07:44:21;;;;;;;1.55;0.50;;;;;;;9.14;53.22;94835.41;5040303;28;20116;-90
2022/04/11 07:46:46;;;;;;;1.40;0.70;;;;;;;9.19;49.79;94840.69;5023035;28;20033;-91
2022/04/11 07:49:12;;;;;;;1.67;0.80;;;;;;;9.32;50.50;94840.28;5039713;28;20350;-91
2022/04/11 07:51:37;;;;;;;0.70;0.55;;;;;;;9.33;49.56;94843.69;5023469;28;20381;-91
2022/04/11 07:54:03;;;;;;;1.08;0.70;;;;;;;9.42;47.39;94844.03;5039546;28;20025;-92
2022/04/11 07:56:29;;;;;;;0.70;0.50;;;;;;;9.36;47.44;94835.34;5039484;28;20025;-91
2022/04/11 07:58:55;;;;;;;2.05;0.80;;;;;;;9.29;48.09;94839.97;5023247;28;20067;-91
2022/04/11 08:01:21;;;;;;;1.50;0.60;;;;;;;9.41;48.04;94838.00;5039511;28;20032;-92
2022/04/11 08:03:47;;;;;;;1.08;0.52;;;;;;;9.58;47.30;94837.91;5039515;28;20063;-92
2022/04/11 08:06:13;;;;;;;0.93;0.60;;;;;;;9.64;45.48;94845.78;5039422;28;20407;-91
2022/04/11 08:08:44;;;;;;;1.33;0.70;;;;;;;9.76;47.06;94847.22;5023061;28;20349;-92
2022/04/11 08:11:11;;;;;;;2.05;0.52;;;;;;;9.88;49.95;94843.63;5023907;28;20035;-92
2022/04/11 08:13:36;;;;;;;1.75;0.70;;;;;;;9.94;47.91;94847.06;5039294;28;20025;-91
2022/04/11 08:16:02;;;;;;;1.70;0.80;;;;;;;10.04;49.63;94845.31;5039166;28;20021;-90
2022/04/11 08:18:27;;;;;;;1.98;0.73;;;;;;;10.02;48.13;94839.53;5038753;28;20079;-90
2022/04/11 08:20:52;;;;;;;1.25;0.60;;;;;;;10.14;44.76;94852.44;5039409;28;20028;-93
2022/04/11 08:23:18;;;;;;;4.07;1.08;;;;;;;10.25;46.90;94845.44;5022990;28;20033;-91
2022/04/11 08:25:43;;;;;;;2.80;0.73;;;;;;;10.06;47.23;94844.28;5038974;28;20350;-91
2022/04/11 08:28:09;;;;;;;1.70;0.80;;;;;;;10.16;50.57;94846.94;5038984;28;20036;-91
2022/04/11 08:30:34;;;;;;;2.53;0.88;;;;;;;10.01;49.81;94843.19;5039139;28;20028;-90
2022/04/11 08:32:59;;;;;;;1.17;0.52;;;;;;;9.99;45.62;94845.28;5039087;28;20051;-92
2022/04/11 08:35:25;;;;;;;0.65;0.50;;;;;;;10.13;48.23;94848.25;5022697;28;20028;-91
2022/04/11 08:37:50;;;;;;;2.75;0.60;;;;;;;10.22;51.29;94845.94;5038865;28;20029;-91
2022/04/11 08:40:19;;;;;;;2.75;0.73;;;;;;;10.27;49.93;94845.19;5022652;28;20147;-91
2022/04/11 08:42:44;;;;;;;1.70;0.82;;;;;;;10.42;49.53;94840.06;5022578;28;20028;-92
2022/04/11 08:45:13;;;;;;;4.47;1.00;;;;;;;10.42;49.81;94839.28;5038859;28;20346;-91
2022/04/11 08:47:39;;;;;;;1.20;0.65;;;;;;;10.51;48.41;94837.75;5022771;28;20319;-90
2022/04/11 08:50:05;;;;;;;1.63;0.70;;;;;;;10.72;48.97;94828.16;5022514;28;20033;-92
2022/04/11 08:52:33;;;;;;;2.03;0.57;;;;;;;11.23;45.43;94833.81;5022504;28;20033;-91
2022/04/11 08:54:58;;;;;;;1.65;0.60;;;;;;;11.23;46.26;94839.81;5038986;28;20029;-91
2022/04/11 08:57:24;;;;;;;0.80;0.50;;;;;;;10.95;48.36;94838.47;5022477;28;20033;-90
2022/04/11 08:59:49;;;;;;;0.95;0.60;;;;;;;10.62;47.82;94843.06;5038753;28;20028;-91
2022/04/11 09:02:15;;;;;;;4.97;0.70;;;;;;;11.07;50.96;94840.84;5038821;28;20036;-91
2022/04/11 09:04:51;;;;;;;1.50;0.70;;;;;;;11.13;44.23;94840.59;5022653;28;20025;-91
2022/04/11 09:07:16;;;;;;;1.77;0.60;;;;;;;11.08;44.97;94840.59;5038541;28;20450;-90
2022/04/11 09:09:42;;;;;;;4.38;0.75;;;;;;;11.20;43.67;94836.97;5022269;28;20060;-91
2022/04/11 09:12:15;;;;;;;1.40;0.57;;;;;;;11.45;47.29;94829.09;5038596;28;20449;-91
2022/04/11 09:14:54;;;;;;;1.58;0.68;;;;;;;11.34;45.56;94827.53;5021979;28;20035;-91
2022/04/11 09:17:23;;;;;;;0.80;0.60;;;;;;;11.28;44.52;94839.06;5045212;28;20341;-90
2022/04/11 09:20:11;;;;;;;1.10;0.63;;;;;;;11.13;42.33;94826.72;5058328;28;20331;-91
2022/04/11 09:22:36;;;;;;;1.30;0.73;;;;;;;11.44;43.32;94832.00;5042017;28;20118;-91
2022/04/11 09:25:15;;;;;;;1.40;0.40;;;;;;;11.54;40.58;94831.22;5041948;28;20120;-90
2022/04/11 09:27:41;;;;;;;2.70;0.60;;;;;;;11.70;39.43;94837.28;5058443;28;20162;-91
2022/04/11 09:30:28;;;;;;;2.70;1.05;;;;;;;11.59;36.76;94833.84;5043011;28;20031;-91
2022/04/11 09:32:56;;;;;;;0.90;0.60;;;;;;;11.66;39.41;94826.50;5045846;28;20027;-91
2022/04/11 09:35:23;;;;;;;1.00;0.68;;;;;;;12.11;40.29;94839.13;5080037;28;20020;-91
2022/04/11 09:37:53;;;;;;;1.05;0.73;;;;;;;11.99;39.71;94834.13;5062058;28;20349;-91
2022/04/11 09:40:21;;;;;;;1.63;0.70;;;;;;;12.22;37.95;94835.44;5062102;28;20029;-90
2022/04/11 09:42:56;;;;;;;1.48;0.70;;;;;;;11.97;38.43;94826.50;5045663;28;20057;-92
2022/04/11 09:45:22;;;;;;;0.90;0.50;;;;;;;11.89;39.70;94829.63;5062141;28;20111;-91
2022/04/11 09:48:01;;;;;;;0.88;0.47;;;;;;;12.30;39.30;94821.72;5061999;28;20567;-91
2022/04/11 09:50:31;;;;;;;0.50;0.47;;;;;;;12.36;40.25;94824.38;5061844;28;20101;-91
2022/04/11 09:53:08;;;;;;;2.08;0.60;;;;;;;12.45;42.37;94822.75;5061763;28;20341;-89
2022/04/11 09:55:38;;;;;;;1.40;0.40;;;;;;;12.63;38.52;94823.25;5061944;28;20021;-91
2022/04/11 09:58:04;;;;;;;2.40;0.40;;;;;;;12.52;38.45;94828.53;5045052;28;20028;-90
2022/04/11 10:00:32;;;;;;;1.55;0.50;;;;;;;12.51;40.04;94820.91;5045208;28;20338;-90
2022/04/11 10:02:58;;;;;;;1.83;0.75;;;;;;;12.62;41.95;94822.44;5050519;28;20033;-92
2022/04/11 10:05:25;;;;;;;1.30;0.63;;;;;;;12.71;42.90;94812.16;5041793;28;20027;-93
2022/04/11 10:07:54;;;;;;;3.63;0.57;;;;;;;12.85;37.25;94818.41;5058226;28;20074;-92
2022/04/11 10:10:23;;;;;;;3.72;0.65;;;;;;;12.91;39.80;94818.38;5041453;28;20032;-92
2022/04/11 10:12:51;;;;;;;1.95;0.70;;;;;;;12.70;35.14;94821.91;5041695;28;20032;-91
2022/04/11 10:15:17;;;;;;;1.33;0.70;;;;;;;12.61;37.12;94814.81;5041760;28;20053;-91
2022/04/11 10:17:42;;;;;;;1.98;0.77;;;;;;;12.75;41.72;94820.28;5057992;28;20075;-92
2022/04/11 10:20:08;;;;;;;5.97;0.65;;;;;;;12.67;34.83;94813.75;5057846;28;20108;-91
2022/04/11 10:22:42;;;;;;;0.98;0.70;;;;;;;12.51;34.62;94811.19;5041586;28;20020;-92
2022/04/11 10:25:07;;;;;;;0.60;0.50;;;;;;;12.70;42.76;94800.06;5041447;28;20341;-91
2022/04/11 10:27:34;;;;;;;1.23;0.70;;;;;;;12.80;38.72;94802.66;5052711;28;20111;-90
2022/04/11 10:30:02;;;;;;;0.65;0.57;;;;;;;12.79;38.31;94800.28;5024898;28;20024;-91
2022/04/11 10:32:29;;;;;;;1.40;0.80;;;;;;;13.23;40.51;94798.75;5041317;28;20028;-91
2022/04/11 10:35:04;;;;;;;2.40;0.80;;;;;;;13.43;44.99;94793.38;5040885;28;20434;-92
2022/04/11 10:37:39;;;;;;;0.98;0.77;;;;;;;13.57;41.37;94800.63;5041144;28;20415;-92
2022/04/11 10:40:16;;;;;;;6.45;0.85;;;;;;;13.55;37.34;94792.22;5058654;28;20457;-91
2022/04/11 10:43:04;;;;;;;1.65;0.80;;;;;;;13.96;42.54;94788.47;5041092;28;20035;-91
2022/04/11 10:45:36;;;;;;;1.35;0.80;;;;;;;14.18;43.26;94787.97;5058595;28;20341;-91
2022/04/11 10:48:05;;;;;;;2.83;1.20;;;;;;;14.02;41.12;94784.72;5041097;28;20048;-91
2022/04/11 10:50:38;;;;;;;3.13;1.48;;;;;;;13.68;40.05;94783.72;5041191;28;20036;-92
2022/04/11 10:53:12;;;;;;;3.17;1.33;;;;;;;13.53;43.25;94786.47;5040724;28;20025;-92
2022/04/11 10:55:56;;;;;;;;;;;;;;;13.58;41.00;94781.16;5058201;28;20054;-90
2022/04/11 10:58:23;;;;;;;2.65;1.50;;;;;;;13.53;42.39;94779.34;5024404;28;19908;-91
2022/04/11 11:00:51;;;;;;;3.03;1.67;;;;;;;13.63;46.41;94775.88;5008148;28;20029;-91
2022/04/11 11:03:18;;;;;;;4.20;1.95;;;;;;;13.77;41.70;94776.00;5058004;28;20095;-91
2022/04/11 11:05:48;;;;;;;8.00;1.98;;;;;;;13.93;50.01;94781.13;5040359;28;20036;-92
2022/04/11 11:08:17;;;;;;;3.60;1.92;;;;;;;13.97;42.74;94772.38;5058853;28;20181;-92
2022/04/11 11:10:52;;;;;;;4.50;1.92;;;;;;;13.88;42.80;94760.88;5040575;28;20025;-91
2022/04/11 11:13:44;;;;;;;4.35;2.35;;;;;;;13.73;44.14;94764.44;5058414;28;20036;-91
2022/04/11 11:16:10;;;;;;;4.47;2.53;;;;;;;13.26;42.47;94762.13;5036402;28;20044;-91
2022/04/11 11:18:51;;;;;;;5.68;2.50;;;;;;;13.32;45.17;94760.25;5058286;28;20434;-92
2022/04/11 11:21:20;;;;;;;11.98;2.70;;;;;;;13.35;44.38;94765.00;5040121;28;20041;-91
2022/04/11 11:24:04;;;;;;;4.03;2.55;;;;;;;13.38;43.00;94763.63;5040298;28;20039;-91
2022/04/11 11:26:40;;;;;;;5.95;3.10;;;;;;;13.60;47.54;94767.72;5040260;28;20033;-91
2022/04/11 11:29:17;;;;;;;5.15;2.35;;;;;;;14.13;46.16;94762.50;5039314;28;20064;-91
2022/04/11 11:31:44;;;;;;;5.15;2.67;;;;;;;13.84;43.84;94773.03;5039929;28;20346;-91
2022/04/11 11:34:20;;;;;;;5.72;2.72;;;;;;;13.56;42.68;94772.75;5023631;28;20033;-92
2022/04/11 11:36:46;;;;;;;4.30;2.45;;;;;;;13.57;46.02;94763.78;5040211;28;20494;-91
2022/04/11 11:39:12;;;;;;;4.82;2.38;;;;;;;13.65;44.71;94763.19;5039796;28;20028;-91
2022/04/11 11:41:42;;;;;;;6.95;2.40;;;;;;;13.79;43.55;94762.56;5040014;28;20029;-91
2022/04/11 11:44:09;;;;;;;4.43;2.83;;;;;;;13.89;44.04;94772.22;5023684;28;20056;-92
2022/04/11 11:46:50;;;;;;;5.72;2.67;;;;;;;13.96;48.44;94770.81;5040029;28;20205;-91
2022/04/11 11:49:17;;;;;;;3.83;2.63;;;;;;;14.18;48.95;94763.50;5023426;28;20082;-92
2022/04/11 11:51:43;;;;;;;4.50;2.78;;;;;;;14.06;43.22;94769.13;5023169;28;20519;-92
2022/04/11 11:54:08;;;;;;;4.78;2.78;;;;;;;14.31;43.75;94769.94;5022728;28;20048;-91
2022/04/11 11:56:45;;;;;;;4.95;3.05;;;;;;;14.13;45.25;94774.88;5039404;28;20033;-92
2022/04/11 11:59:11;;;;;;;5.18;3.40;;;;;;;14.26;43.83;94768.94;5023818;28;20090;-92
2022/04/11 12:01:38;;;;;;;5.57;2.90;;;;;;;14.41;50.39;94772.47;5039620;28;20083;-92
2022/04/11 12:04:19;;;;;;;4.82;2.67;;;;;;;14.17;43.79;94762.69;5039592;28;20033;-92
2022/04/11 12:06:54;;;;;;;5.65;3.17;;;;;;;14.52;46.93;94771.28;5025110;28;20396;-92
2022/04/11 12:09:20;;;;;;;6.32;3.13;;;;;;;14.37;44.37;94769.59;5057184;28;20024;-90
2022/04/11 12:11:46;;;;;;;8.73;3.25;;;;;;;14.61;48.04;94771.44;5023161;28;20061;-92
2022/04/11 12:14:11;;;;;;;5.75;3.33;;;;;;;14.61;52.04;94765.38;5022790;28;20091;-92
2022/04/11 12:16:39;;;;;;;6.45;3.47;;;;;;;14.63;44.24;94771.13;5039307;28;20426;-93
2022/04/11 12:19:06;;;;;;;6.10;3.47;;;;;;;14.17;44.54;94761.94;5039221;28;20468;-92
2022/04/11 12:21:39;;;;;;;6.97;3.63;;;;;;;14.55;45.87;94757.53;5039200;28;20086;-92
2022/04/11 12:24:09;;;;;;;11.85;4.00;;;;;;;14.42;47.28;94766.91;5056872;28;20472;-92
2022/04/11 12:26:39;;;;;;;7.50;4.10;;;;;;;14.61;44.34;94770.66;5039233;28;20108;-92
2022/04/11 12:29:16;;;;;;;7.05;3.90;;;;;;;13.70;44.84;94757.88;5039104;28;20515;-92
2022/04/11 12:31:59;;;;;;;12.55;4.85;;;;;;;13.94;46.01;94758.97;5040062;28;20445;-92
2022/04/11 12:34:33;;;;;;;6.25;4.15;;;;;;;14.00;45.09;94756.03;5039286;28;20450;-91